sensor_id;sensor_type;location;lat;lon;timestamp;P1;durP1;ratioP1;P2;durP2;ratioP2
17145;SDS011;8688;54.444;18.444;2023-03-23T00:01:10;15.77;;;9.50;;
17145;SDS011;8688;54.444;18.444;2023-03-23T00:03:39;16.50;;;9.60;;
17145;SDS011;8688;54.444;18.444;2023-03-23T00:06:08;17.02;;;9.80;;
17145;SDS011;8688;54.444;18.444;2023-03-23T00:08:36;13.15;;;9.52;;
17145;SDS011;8688;54.444;18.444;2023-03-23T00:11:12;14.77;;;9.63;;
17145;SDS011;8688;54.444;18.444;2023-03-23T00:13:41;14.57;;;9.40;;
17145;SDS011;8688;54.444;18.444;2023-03-23T00:16:11;15.07;;;9.75;;
17145;SDS011;8688;54.444;18.444;2023-03-23T00:18:46;16.15;;;10.23;;
17145;SDS011;8688;54.444;18.444;2023-03-23T00:21:17;14.68;;;9.55;;
17145;SDS011;8688;54.444;18.444;2023-03-23T00:23:45;16.58;;;9.52;;
17145;SDS011;8688;54.444;18.444;2023-03-23T00:26:14;17.77;;;10.48;;
17145;SDS011;8688;54.444;18.444;2023-03-23T00:28:42;13.05;;;8.65;;
17145;SDS011;8688;54.444;18.444;2023-03-23T00:31:11;14.32;;;9.45;;
17145;SDS011;8688;54.444;18.444;2023-03-23T00:33:40;15.13;;;9.35;;
17145;SDS011;8688;54.444;18.444;2023-03-23T00:36:07;17.67;;;10.43;;
17145;SDS011;8688;54.444;18.444;2023-03-23T00:38:39;15.93;;;9.02;;
17145;SDS011;8688;54.444;18.444;2023-03-23T00:41:09;14.05;;;9.10;;
17145;SDS011;8688;54.444;18.444;2023-03-23T00:43:38;17.23;;;10.20;;
17145;SDS011;8688;54.444;18.444;2023-03-23T00:46:05;14.52;;;9.82;;
17145;SDS011;8688;54.444;18.444;2023-03-23T00:48:34;16.23;;;9.95;;
17145;SDS011;8688;54.444;18.444;2023-03-23T00:51:06;14.73;;;9.85;;
17145;SDS011;8688;54.444;18.444;2023-03-23T00:53:35;15.57;;;9.40;;
17145;SDS011;8688;54.444;18.444;2023-03-23T00:56:03;16.60;;;9.65;;
17145;SDS011;8688;54.444;18.444;2023-03-23T00:58:31;13.75;;;8.95;;
17145;SDS011;8688;54.444;18.444;2023-03-23T01:01:00;12.82;;;8.80;;
17145;SDS011;8688;54.444;18.444;2023-03-23T01:03:33;13.85;;;9.10;;
17145;SDS011;8688;54.444;18.444;2023-03-23T01:06:05;14.65;;;9.35;;
17145;SDS011;8688;54.444;18.444;2023-03-23T01:08:37;14.35;;;9.23;;
17145;SDS011;8688;54.444;18.444;2023-03-23T01:11:10;14.82;;;9.20;;
17145;SDS011;8688;54.444;18.444;2023-03-23T01:13:39;13.38;;;9.05;;
17145;SDS011;8688;54.444;18.444;2023-03-23T01:16:08;15.65;;;9.18;;
17145;SDS011;8688;54.444;18.444;2023-03-23T01:18:36;12.63;;;8.40;;
17145;SDS011;8688;54.444;18.444;2023-03-23T01:21:04;15.68;;;9.20;;
17145;SDS011;8688;54.444;18.444;2023-03-23T01:23:33;13.43;;;8.57;;
17145;SDS011;8688;54.444;18.444;2023-03-23T01:26:04;12.02;;;7.97;;
17145;SDS011;8688;54.444;18.444;2023-03-23T01:28:32;13.02;;;8.68;;
17145;SDS011;8688;54.444;18.444;2023-03-23T01:31:01;12.38;;;8.93;;
17145;SDS011;8688;54.444;18.444;2023-03-23T01:33:30;13.77;;;8.40;;
17145;SDS011;8688;54.444;18.444;2023-03-23T01:36:01;17.45;;;9.00;;
17145;SDS011;8688;54.444;18.444;2023-03-23T01:38:30;14.90;;;8.65;;
17145;SDS011;8688;54.444;18.444;2023-03-23T01:40:58;14.88;;;9.50;;
17145;SDS011;8688;54.444;18.444;2023-03-23T01:43:25;15.63;;;8.27;;
17145;SDS011;8688;54.444;18.444;2023-03-23T01:45:53;14.55;;;8.90;;
17145;SDS011;8688;54.444;18.444;2023-03-23T01:48:21;13.82;;;8.35;;
17145;SDS011;8688;54.444;18.444;2023-03-23T01:50:54;16.08;;;9.35;;
17145;SDS011;8688;54.444;18.444;2023-03-23T01:53:25;15.80;;;8.30;;
17145;SDS011;8688;54.444;18.444;2023-03-23T01:55:55;13.88;;;8.80;;
17145;SDS011;8688;54.444;18.444;2023-03-23T01:58:26;15.85;;;9.23;;
17145;SDS011;8688;54.444;18.444;2023-03-23T02:00:57;16.15;;;9.40;;
17145;SDS011;8688;54.444;18.444;2023-03-23T02:03:30;13.95;;;9.40;;
17145;SDS011;8688;54.444;18.444;2023-03-23T02:06:00;13.48;;;8.80;;
17145;SDS011;8688;54.444;18.444;2023-03-23T02:08:28;13.57;;;9.02;;
17145;SDS011;8688;54.444;18.444;2023-03-23T02:10:58;14.25;;;9.43;;
17145;SDS011;8688;54.444;18.444;2023-03-23T02:13:26;17.15;;;9.68;;
17145;SDS011;8688;54.444;18.444;2023-03-23T02:15:57;14.15;;;9.40;;
17145;SDS011;8688;54.444;18.444;2023-03-23T02:18:37;15.35;;;10.10;;
17145;SDS011;8688;54.444;18.444;2023-03-23T02:21:19;14.60;;;9.93;;
17145;SDS011;8688;54.444;18.444;2023-03-23T02:27:20;17.75;;;9.40;;
17145;SDS011;8688;54.444;18.444;2023-03-23T02:30:32;15.75;;;9.52;;
17145;SDS011;8688;54.444;18.444;2023-03-23T02:33:26;16.87;;;9.90;;
17145;SDS011;8688;54.444;18.444;2023-03-23T02:36:00;15.40;;;10.00;;
17145;SDS011;8688;54.444;18.444;2023-03-23T02:38:32;16.05;;;9.95;;
17145;SDS011;8688;54.444;18.444;2023-03-23T02:41:04;14.23;;;9.60;;
17145;SDS011;8688;54.444;18.444;2023-03-23T02:43:33;13.27;;;9.50;;
17145;SDS011;8688;54.444;18.444;2023-03-23T02:46:04;13.95;;;9.50;;
17145;SDS011;8688;54.444;18.444;2023-03-23T02:48:36;15.37;;;9.73;;
17145;SDS011;8688;54.444;18.444;2023-03-23T02:51:06;16.77;;;9.97;;
17145;SDS011;8688;54.444;18.444;2023-03-23T02:53:36;16.20;;;9.93;;
17145;SDS011;8688;54.444;18.444;2023-03-23T02:56:06;16.07;;;10.07;;
17145;SDS011;8688;54.444;18.444;2023-03-23T02:58:35;15.93;;;9.53;;
17145;SDS011;8688;54.444;18.444;2023-03-23T03:01:44;19.07;;;9.57;;
17145;SDS011;8688;54.444;18.444;2023-03-23T03:04:19;15.33;;;9.77;;
17145;SDS011;8688;54.444;18.444;2023-03-23T03:06:52;15.27;;;9.67;;
17145;SDS011;8688;54.444;18.444;2023-03-23T03:09:50;16.83;;;9.73;;
17145;SDS011;8688;54.444;18.444;2023-03-23T03:12:24;14.97;;;9.80;;
17145;SDS011;8688;54.444;18.444;2023-03-23T03:14:58;16.87;;;9.97;;
17145;SDS011;8688;54.444;18.444;2023-03-23T03:17:33;15.87;;;10.07;;
17145;SDS011;8688;54.444;18.444;2023-03-23T03:20:10;14.90;;;9.90;;
17145;SDS011;8688;54.444;18.444;2023-03-23T03:22:39;15.23;;;9.73;;
17145;SDS011;8688;54.444;18.444;2023-03-23T03:25:10;15.38;;;9.50;;
17145;SDS011;8688;54.444;18.444;2023-03-23T03:27:40;14.20;;;9.38;;
17145;SDS011;8688;54.444;18.444;2023-03-23T03:30:11;16.90;;;9.90;;
17145;SDS011;8688;54.444;18.444;2023-03-23T03:32:44;14.57;;;9.68;;
17145;SDS011;8688;54.444;18.444;2023-03-23T03:35:17;15.07;;;9.57;;
17145;SDS011;8688;54.444;18.444;2023-03-23T03:37:45;15.13;;;9.17;;
17145;SDS011;8688;54.444;18.444;2023-03-23T03:40:14;14.40;;;9.20;;
17145;SDS011;8688;54.444;18.444;2023-03-23T03:42:44;15.73;;;9.47;;
17145;SDS011;8688;54.444;18.444;2023-03-23T03:45:13;15.63;;;9.53;;
17145;SDS011;8688;54.444;18.444;2023-03-23T03:47:43;16.20;;;9.67;;
17145;SDS011;8688;54.444;18.444;2023-03-23T03:50:11;14.57;;;9.87;;
17145;SDS011;8688;54.444;18.444;2023-03-23T03:52:40;14.33;;;9.77;;
17145;SDS011;8688;54.444;18.444;2023-03-23T03:55:08;17.53;;;9.60;;
17145;SDS011;8688;54.444;18.444;2023-03-23T03:57:36;18.00;;;9.67;;
17145;SDS011;8688;54.444;18.444;2023-03-23T04:00:04;13.37;;;9.33;;
17145;SDS011;8688;54.444;18.444;2023-03-23T04:02:39;14.90;;;8.93;;
17145;SDS011;8688;54.444;18.444;2023-03-23T04:05:08;14.97;;;9.27;;
17145;SDS011;8688;54.444;18.444;2023-03-23T04:07:36;13.73;;;8.63;;
17145;SDS011;8688;54.444;18.444;2023-03-23T04:10:06;15.30;;;9.13;;
17145;SDS011;8688;54.444;18.444;2023-03-23T04:12:36;15.13;;;9.27;;
17145;SDS011;8688;54.444;18.444;2023-03-23T04:15:04;15.73;;;9.20;;
17145;SDS011;8688;54.444;18.444;2023-03-23T04:17:32;15.97;;;9.33;;
17145;SDS011;8688;54.444;18.444;2023-03-23T04:20:00;15.57;;;8.98;;
17145;SDS011;8688;54.444;18.444;2023-03-23T04:22:32;15.23;;;9.00;;
17145;SDS011;8688;54.444;18.444;2023-03-23T04:25:00;13.63;;;8.93;;
17145;SDS011;8688;54.444;18.444;2023-03-23T04:27:32;15.87;;;8.60;;
17145;SDS011;8688;54.444;18.444;2023-03-23T04:30:01;13.23;;;8.43;;
17145;SDS011;8688;54.444;18.444;2023-03-23T04:32:30;13.80;;;7.95;;
17145;SDS011;8688;54.444;18.444;2023-03-23T04:34:57;13.25;;;8.98;;
17145;SDS011;8688;54.444;18.444;2023-03-23T04:37:26;11.37;;;7.67;;
17145;SDS011;8688;54.444;18.444;2023-03-23T04:39:59;12.17;;;8.10;;
17145;SDS011;8688;54.444;18.444;2023-03-23T04:42:33;14.23;;;8.18;;
17145;SDS011;8688;54.444;18.444;2023-03-23T04:45:02;13.00;;;7.72;;
17145;SDS011;8688;54.444;18.444;2023-03-23T04:47:33;11.80;;;7.47;;
17145;SDS011;8688;54.444;18.444;2023-03-23T04:50:06;15.80;;;8.20;;
17145;SDS011;8688;54.444;18.444;2023-03-23T04:52:35;14.18;;;9.13;;
17145;SDS011;8688;54.444;18.444;2023-03-23T04:55:06;14.48;;;8.25;;
17145;SDS011;8688;54.444;18.444;2023-03-23T04:57:36;15.23;;;8.60;;
17145;SDS011;8688;54.444;18.444;2023-03-23T05:00:04;13.00;;;8.70;;
17145;SDS011;8688;54.444;18.444;2023-03-23T05:02:34;14.43;;;8.73;;
17145;SDS011;8688;54.444;18.444;2023-03-23T05:05:02;11.85;;;8.00;;
17145;SDS011;8688;54.444;18.444;2023-03-23T05:07:30;13.48;;;8.50;;
17145;SDS011;8688;54.444;18.444;2023-03-23T05:09:57;12.52;;;8.15;;
17145;SDS011;8688;54.444;18.444;2023-03-23T05:12:25;12.80;;;8.20;;
17145;SDS011;8688;54.444;18.444;2023-03-23T05:14:54;11.85;;;7.57;;
17145;SDS011;8688;54.444;18.444;2023-03-23T05:17:21;12.77;;;7.97;;
17145;SDS011;8688;54.444;18.444;2023-03-23T05:19:49;15.18;;;7.68;;
17145;SDS011;8688;54.444;18.444;2023-03-23T05:22:17;10.48;;;7.10;;
17145;SDS011;8688;54.444;18.444;2023-03-23T05:24:47;12.35;;;7.20;;
17145;SDS011;8688;54.444;18.444;2023-03-23T05:27:16;12.73;;;7.43;;
17145;SDS011;8688;54.444;18.444;2023-03-23T05:29:45;13.35;;;7.32;;
17145;SDS011;8688;54.444;18.444;2023-03-23T05:32:16;11.48;;;7.40;;
17145;SDS011;8688;54.444;18.444;2023-03-23T05:34:44;10.23;;;6.60;;
17145;SDS011;8688;54.444;18.444;2023-03-23T05:37:12;11.52;;;6.53;;
17145;SDS011;8688;54.444;18.444;2023-03-23T05:39:40;10.85;;;7.07;;
17145;SDS011;8688;54.444;18.444;2023-03-23T05:42:07;12.73;;;6.80;;
17145;SDS011;8688;54.444;18.444;2023-03-23T05:44:35;15.32;;;8.25;;
17145;SDS011;8688;54.444;18.444;2023-03-23T05:47:03;9.50;;;6.75;;
17145;SDS011;8688;54.444;18.444;2023-03-23T05:49:32;11.93;;;6.68;;
17145;SDS011;8688;54.444;18.444;2023-03-23T05:52:01;11.48;;;6.82;;
17145;SDS011;8688;54.444;18.444;2023-03-23T05:54:29;9.63;;;6.53;;
17145;SDS011;8688;54.444;18.444;2023-03-23T05:56:56;10.77;;;6.70;;
17145;SDS011;8688;54.444;18.444;2023-03-23T05:59:24;11.75;;;7.20;;
17145;SDS011;8688;54.444;18.444;2023-03-23T06:01:51;12.18;;;6.57;;
17145;SDS011;8688;54.444;18.444;2023-03-23T06:04:20;10.60;;;6.22;;
17145;SDS011;8688;54.444;18.444;2023-03-23T06:06:51;11.40;;;6.82;;
17145;SDS011;8688;54.444;18.444;2023-03-23T06:09:19;12.25;;;6.93;;
17145;SDS011;8688;54.444;18.444;2023-03-23T06:11:48;11.68;;;6.97;;
17145;SDS011;8688;54.444;18.444;2023-03-23T06:14:17;12.15;;;6.50;;
17145;SDS011;8688;54.444;18.444;2023-03-23T06:16:44;11.40;;;6.82;;
17145;SDS011;8688;54.444;18.444;2023-03-23T06:19:12;11.07;;;6.32;;
17145;SDS011;8688;54.444;18.444;2023-03-23T06:22:03;11.27;;;6.28;;
17145;SDS011;8688;54.444;18.444;2023-03-23T06:24:30;10.88;;;6.30;;
17145;SDS011;8688;54.444;18.444;2023-03-23T06:27:01;9.90;;;6.30;;
17145;SDS011;8688;54.444;18.444;2023-03-23T06:29:28;9.68;;;6.70;;
17145;SDS011;8688;54.444;18.444;2023-03-23T06:31:57;8.57;;;6.05;;
17145;SDS011;8688;54.444;18.444;2023-03-23T06:34:27;11.50;;;6.57;;
17145;SDS011;8688;54.444;18.444;2023-03-23T06:36:54;10.82;;;5.90;;
17145;SDS011;8688;54.444;18.444;2023-03-23T06:39:23;9.77;;;6.07;;
17145;SDS011;8688;54.444;18.444;2023-03-23T06:41:51;9.85;;;5.93;;
17145;SDS011;8688;54.444;18.444;2023-03-23T06:44:18;8.68;;;6.22;;
17145;SDS011;8688;54.444;18.444;2023-03-23T06:46:47;10.93;;;6.35;;
17145;SDS011;8688;54.444;18.444;2023-03-23T06:49:15;13.48;;;6.15;;
17145;SDS011;8688;54.444;18.444;2023-03-23T06:51:42;9.35;;;5.97;;
17145;SDS011;8688;54.444;18.444;2023-03-23T06:54:10;11.23;;;6.47;;
17145;SDS011;8688;54.444;18.444;2023-03-23T06:56:39;12.13;;;6.32;;
17145;SDS011;8688;54.444;18.444;2023-03-23T06:59:06;10.00;;;6.22;;
17145;SDS011;8688;54.444;18.444;2023-03-23T07:01:35;13.05;;;6.40;;
17145;SDS011;8688;54.444;18.444;2023-03-23T07:04:03;10.48;;;5.95;;
17145;SDS011;8688;54.444;18.444;2023-03-23T07:06:31;12.38;;;6.55;;
17145;SDS011;8688;54.444;18.444;2023-03-23T07:08:58;11.45;;;6.82;;
17145;SDS011;8688;54.444;18.444;2023-03-23T07:11:26;10.90;;;6.82;;
17145;SDS011;8688;54.444;18.444;2023-03-23T07:13:55;12.88;;;6.20;;
17145;SDS011;8688;54.444;18.444;2023-03-23T07:16:22;10.77;;;5.85;;
17145;SDS011;8688;54.444;18.444;2023-03-23T07:18:51;12.57;;;6.15;;
17145;SDS011;8688;54.444;18.444;2023-03-23T07:21:18;11.55;;;6.57;;
17145;SDS011;8688;54.444;18.444;2023-03-23T07:23:46;11.50;;;6.30;;
17145;SDS011;8688;54.444;18.444;2023-03-23T07:26:13;10.50;;;6.22;;
17145;SDS011;8688;54.444;18.444;2023-03-23T07:28:42;13.27;;;6.43;;
17145;SDS011;8688;54.444;18.444;2023-03-23T07:31:12;11.68;;;6.20;;
17145;SDS011;8688;54.444;18.444;2023-03-23T07:33:40;13.07;;;6.57;;
17145;SDS011;8688;54.444;18.444;2023-03-23T07:36:07;11.38;;;5.95;;
17145;SDS011;8688;54.444;18.444;2023-03-23T07:38:36;8.68;;;5.78;;
17145;SDS011;8688;54.444;18.444;2023-03-23T07:41:04;8.45;;;6.07;;
17145;SDS011;8688;54.444;18.444;2023-03-23T07:43:32;9.02;;;5.47;;
17145;SDS011;8688;54.444;18.444;2023-03-23T07:46:00;10.60;;;6.20;;
17145;SDS011;8688;54.444;18.444;2023-03-23T07:48:29;11.48;;;6.65;;
17145;SDS011;8688;54.444;18.444;2023-03-23T07:50:57;11.52;;;5.95;;
17145;SDS011;8688;54.444;18.444;2023-03-23T07:53:25;10.30;;;6.18;;
17145;SDS011;8688;54.444;18.444;2023-03-23T07:55:53;11.15;;;6.38;;
17145;SDS011;8688;54.444;18.444;2023-03-23T07:58:20;11.75;;;6.10;;
17145;SDS011;8688;54.444;18.444;2023-03-23T08:00:48;9.52;;;5.82;;
17145;SDS011;8688;54.444;18.444;2023-03-23T08:03:17;9.13;;;5.35;;
17145;SDS011;8688;54.444;18.444;2023-03-23T08:05:46;10.35;;;5.35;;
17145;SDS011;8688;54.444;18.444;2023-03-23T08:08:15;12.77;;;6.32;;
17145;SDS011;8688;54.444;18.444;2023-03-23T08:10:43;10.55;;;5.88;;
17145;SDS011;8688;54.444;18.444;2023-03-23T08:13:11;9.73;;;5.82;;
17145;SDS011;8688;54.444;18.444;2023-03-23T08:15:39;10.32;;;5.97;;
17145;SDS011;8688;54.444;18.444;2023-03-23T08:18:07;10.77;;;5.90;;
17145;SDS011;8688;54.444;18.444;2023-03-23T08:20:34;8.30;;;5.28;;
17145;SDS011;8688;54.444;18.444;2023-03-23T08:23:03;14.00;;;6.38;;
17145;SDS011;8688;54.444;18.444;2023-03-23T08:25:31;10.90;;;5.60;;
17145;SDS011;8688;54.444;18.444;2023-03-23T08:27:59;12.00;;;5.88;;
17145;SDS011;8688;54.444;18.444;2023-03-23T08:30:28;8.00;;;5.72;;
17145;SDS011;8688;54.444;18.444;2023-03-23T08:32:58;10.43;;;5.63;;
17145;SDS011;8688;54.444;18.444;2023-03-23T08:35:26;9.48;;;5.93;;
17145;SDS011;8688;54.444;18.444;2023-03-23T08:37:54;9.85;;;5.32;;
17145;SDS011;8688;54.444;18.444;2023-03-23T08:40:24;8.80;;;5.35;;
17145;SDS011;8688;54.444;18.444;2023-03-23T08:42:52;9.77;;;5.60;;
17145;SDS011;8688;54.444;18.444;2023-03-23T08:45:22;9.93;;;5.55;;
17145;SDS011;8688;54.444;18.444;2023-03-23T08:47:51;8.85;;;5.78;;
17145;SDS011;8688;54.444;18.444;2023-03-23T08:50:21;8.75;;;5.30;;
17145;SDS011;8688;54.444;18.444;2023-03-23T08:52:49;8.85;;;5.25;;
17145;SDS011;8688;54.444;18.444;2023-03-23T08:55:18;8.35;;;4.97;;
17145;SDS011;8688;54.444;18.444;2023-03-23T08:57:48;6.80;;;4.60;;
17145;SDS011;8688;54.444;18.444;2023-03-23T09:00:17;10.90;;;4.78;;
17145;SDS011;8688;54.444;18.444;2023-03-23T09:02:47;10.00;;;5.07;;
17145;SDS011;8688;54.444;18.444;2023-03-23T09:05:16;8.20;;;5.10;;
17145;SDS011;8688;54.444;18.444;2023-03-23T09:07:46;6.97;;;4.55;;
17145;SDS011;8688;54.444;18.444;2023-03-23T09:10:15;6.75;;;4.55;;
17145;SDS011;8688;54.444;18.444;2023-03-23T09:12:44;8.15;;;4.85;;
17145;SDS011;8688;54.444;18.444;2023-03-23T09:15:15;7.97;;;4.55;;
17145;SDS011;8688;54.444;18.444;2023-03-23T09:17:44;5.47;;;4.07;;
17145;SDS011;8688;54.444;18.444;2023-03-23T09:20:14;6.65;;;4.40;;
17145;SDS011;8688;54.444;18.444;2023-03-23T09:22:46;4.90;;;3.88;;
17145;SDS011;8688;54.444;18.444;2023-03-23T09:25:16;8.32;;;4.60;;
17145;SDS011;8688;54.444;18.444;2023-03-23T09:27:48;6.70;;;3.75;;
17145;SDS011;8688;54.444;18.444;2023-03-23T09:30:19;9.65;;;4.38;;
17145;SDS011;8688;54.444;18.444;2023-03-23T09:32:47;5.28;;;4.03;;
17145;SDS011;8688;54.444;18.444;2023-03-23T09:35:15;6.72;;;4.10;;
17145;SDS011;8688;54.444;18.444;2023-03-23T09:37:43;5.30;;;4.30;;
17145;SDS011;8688;54.444;18.444;2023-03-23T09:40:13;7.50;;;4.57;;
17145;SDS011;8688;54.444;18.444;2023-03-23T09:42:53;6.32;;;4.22;;
17145;SDS011;8688;54.444;18.444;2023-03-23T09:45:39;6.85;;;4.22;;
17145;SDS011;8688;54.444;18.444;2023-03-23T09:48:19;7.30;;;4.05;;
17145;SDS011;8688;54.444;18.444;2023-03-23T09:51:12;5.18;;;3.88;;
17145;SDS011;8688;54.444;18.444;2023-03-23T09:53:48;5.55;;;4.05;;
17145;SDS011;8688;54.444;18.444;2023-03-23T09:56:19;8.52;;;4.15;;
17145;SDS011;8688;54.444;18.444;2023-03-23T09:58:50;8.65;;;4.25;;
17145;SDS011;8688;54.444;18.444;2023-03-23T10:01:24;5.35;;;4.03;;
17145;SDS011;8688;54.444;18.444;2023-03-23T10:03:58;6.38;;;4.07;;
17145;SDS011;8688;54.444;18.444;2023-03-23T10:06:30;6.68;;;4.00;;
17145;SDS011;8688;54.444;18.444;2023-03-23T10:08:58;5.75;;;3.85;;
17145;SDS011;8688;54.444;18.444;2023-03-23T10:11:31;5.10;;;3.67;;
17145;SDS011;8688;54.444;18.444;2023-03-23T10:14:14;7.03;;;3.72;;
17145;SDS011;8688;54.444;18.444;2023-03-23T10:16:58;5.40;;;3.35;;
17145;SDS011;8688;54.444;18.444;2023-03-23T10:19:33;5.13;;;3.80;;
17145;SDS011;8688;54.444;18.444;2023-03-23T10:22:08;6.13;;;3.53;;
17145;SDS011;8688;54.444;18.444;2023-03-23T10:24:38;5.38;;;3.10;;
17145;SDS011;8688;54.444;18.444;2023-03-23T10:27:15;5.35;;;3.05;;
17145;SDS011;8688;54.444;18.444;2023-03-23T10:29:50;5.50;;;3.22;;
17145;SDS011;8688;54.444;18.444;2023-03-23T10:32:35;5.35;;;3.22;;
17145;SDS011;8688;54.444;18.444;2023-03-23T10:35:09;3.85;;;2.92;;
17145;SDS011;8688;54.444;18.444;2023-03-23T10:37:42;4.03;;;3.10;;
17145;SDS011;8688;54.444;18.444;2023-03-23T10:40:14;6.82;;;3.28;;
17145;SDS011;8688;54.444;18.444;2023-03-23T10:42:44;4.70;;;3.20;;
17145;SDS011;8688;54.444;18.444;2023-03-23T10:45:15;4.40;;;3.08;;
17145;SDS011;8688;54.444;18.444;2023-03-23T10:47:49;6.20;;;3.35;;
17145;SDS011;8688;54.444;18.444;2023-03-23T10:50:22;5.75;;;3.35;;
17145;SDS011;8688;54.444;18.444;2023-03-23T10:52:53;4.03;;;2.80;;
17145;SDS011;8688;54.444;18.444;2023-03-23T10:55:24;5.78;;;2.72;;
17145;SDS011;8688;54.444;18.444;2023-03-23T10:58:03;4.65;;;3.08;;
17145;SDS011;8688;54.444;18.444;2023-03-23T11:00:32;5.28;;;2.70;;
17145;SDS011;8688;54.444;18.444;2023-03-23T11:03:33;5.60;;;3.20;;
17145;SDS011;8688;54.444;18.444;2023-03-23T11:06:06;5.53;;;3.13;;
17145;SDS011;8688;54.444;18.444;2023-03-23T11:08:36;4.82;;;2.92;;
17145;SDS011;8688;54.444;18.444;2023-03-23T11:11:14;5.00;;;3.47;;
17145;SDS011;8688;54.444;18.444;2023-03-23T11:13:44;5.68;;;3.00;;
17145;SDS011;8688;54.444;18.444;2023-03-23T11:16:22;3.88;;;2.88;;
17145;SDS011;8688;54.444;18.444;2023-03-23T11:18:54;4.75;;;2.85;;
17145;SDS011;8688;54.444;18.444;2023-03-23T11:21:23;3.20;;;2.72;;
17145;SDS011;8688;54.444;18.444;2023-03-23T11:23:54;5.00;;;2.45;;
17145;SDS011;8688;54.444;18.444;2023-03-23T11:26:24;3.53;;;2.35;;
17145;SDS011;8688;54.444;18.444;2023-03-23T11:28:55;3.65;;;2.10;;
17145;SDS011;8688;54.444;18.444;2023-03-23T11:31:26;3.53;;;2.55;;
17145;SDS011;8688;54.444;18.444;2023-03-23T11:33:58;2.88;;;2.05;;
17145;SDS011;8688;54.444;18.444;2023-03-23T11:36:29;3.13;;;2.28;;
17145;SDS011;8688;54.444;18.444;2023-03-23T11:38:59;3.35;;;2.20;;
17145;SDS011;8688;54.444;18.444;2023-03-23T11:41:32;3.20;;;2.17;;
17145;SDS011;8688;54.444;18.444;2023-03-23T11:44:03;2.78;;;2.20;;
17145;SDS011;8688;54.444;18.444;2023-03-23T11:46:39;3.40;;;1.92;;
17145;SDS011;8688;54.444;18.444;2023-03-23T11:49:18;3.95;;;2.10;;
17145;SDS011;8688;54.444;18.444;2023-03-23T11:51:51;3.08;;;1.95;;
17145;SDS011;8688;54.444;18.444;2023-03-23T11:54:24;3.63;;;1.90;;
17145;SDS011;8688;54.444;18.444;2023-03-23T11:56:56;2.97;;;1.80;;
17145;SDS011;8688;54.444;18.444;2023-03-23T11:59:27;2.55;;;1.63;;
17145;SDS011;8688;54.444;18.444;2023-03-23T12:02:23;2.17;;;1.52;;
17145;SDS011;8688;54.444;18.444;2023-03-23T12:08:26;1.83;;;1.58;;
17145;SDS011;8688;54.444;18.444;2023-03-23T12:11:05;1.88;;;1.40;;
17145;SDS011;8688;54.444;18.444;2023-03-23T12:13:46;3.55;;;1.88;;
17145;SDS011;8688;54.444;18.444;2023-03-23T12:16:28;3.65;;;1.45;;
17145;SDS011;8688;54.444;18.444;2023-03-23T12:19:08;3.50;;;1.75;;
17145;SDS011;8688;54.444;18.444;2023-03-23T12:21:44;2.42;;;1.55;;
17145;SDS011;8688;54.444;18.444;2023-03-23T12:24:24;2.92;;;1.70;;
17145;SDS011;8688;54.444;18.444;2023-03-23T12:27:00;3.65;;;2.00;;
17145;SDS011;8688;54.444;18.444;2023-03-23T12:29:40;2.53;;;1.70;;
17145;SDS011;8688;54.444;18.444;2023-03-23T12:32:28;2.95;;;2.00;;
17145;SDS011;8688;54.444;18.444;2023-03-23T12:35:05;2.90;;;1.80;;
17145;SDS011;8688;54.444;18.444;2023-03-23T12:37:52;3.63;;;1.60;;
17145;SDS011;8688;54.444;18.444;2023-03-23T12:40:34;3.55;;;1.60;;
17145;SDS011;8688;54.444;18.444;2023-03-23T12:43:13;1.95;;;1.30;;
17145;SDS011;8688;54.444;18.444;2023-03-23T12:45:56;2.30;;;1.60;;
17145;SDS011;8688;54.444;18.444;2023-03-23T12:48:37;1.35;;;1.25;;
17145;SDS011;8688;54.444;18.444;2023-03-23T12:51:12;1.73;;;1.25;;
17145;SDS011;8688;54.444;18.444;2023-03-23T12:53:48;1.30;;;1.08;;
17145;SDS011;8688;54.444;18.444;2023-03-23T12:56:22;5.88;;;1.52;;
17145;SDS011;8688;54.444;18.444;2023-03-23T12:58:55;2.05;;;1.42;;
17145;SDS011;8688;54.444;18.444;2023-03-23T13:01:28;2.42;;;1.30;;
17145;SDS011;8688;54.444;18.444;2023-03-23T13:03:59;1.70;;;1.33;;
17145;SDS011;8688;54.444;18.444;2023-03-23T13:06:33;2.97;;;1.50;;
17145;SDS011;8688;54.444;18.444;2023-03-23T13:09:05;2.08;;;1.23;;
17145;SDS011;8688;54.444;18.444;2023-03-23T13:11:40;1.73;;;1.20;;
17145;SDS011;8688;54.444;18.444;2023-03-23T13:14:15;2.65;;;1.30;;
17145;SDS011;8688;54.444;18.444;2023-03-23T13:17:01;3.35;;;1.40;;
17145;SDS011;8688;54.444;18.444;2023-03-23T13:19:51;2.47;;;1.30;;
17145;SDS011;8688;54.444;18.444;2023-03-23T13:22:32;8.25;;;2.50;;
17145;SDS011;8688;54.444;18.444;2023-03-23T13:25:06;3.67;;;2.30;;
17145;SDS011;8688;54.444;18.444;2023-03-23T13:27:41;2.10;;;1.33;;
17145;SDS011;8688;54.444;18.444;2023-03-23T13:30:17;3.47;;;1.67;;
17145;SDS011;8688;54.444;18.444;2023-03-23T13:32:49;2.25;;;1.50;;
17145;SDS011;8688;54.444;18.444;2023-03-23T13:35:19;1.85;;;1.50;;
17145;SDS011;8688;54.444;18.444;2023-03-23T13:37:48;3.60;;;1.45;;
17145;SDS011;8688;54.444;18.444;2023-03-23T13:40:21;3.70;;;1.60;;
17145;SDS011;8688;54.444;18.444;2023-03-23T13:42:54;3.83;;;1.48;;
17145;SDS011;8688;54.444;18.444;2023-03-23T13:45:24;6.45;;;1.60;;
17145;SDS011;8688;54.444;18.444;2023-03-23T13:48:04;4.35;;;1.42;;
17145;SDS011;8688;54.444;18.444;2023-03-23T13:50:44;2.20;;;1.33;;
17145;SDS011;8688;54.444;18.444;2023-03-23T13:53:22;6.68;;;1.92;;
17145;SDS011;8688;54.444;18.444;2023-03-23T13:56:21;3.35;;;1.50;;
17145;SDS011;8688;54.444;18.444;2023-03-23T13:59:06;3.58;;;1.60;;
17145;SDS011;8688;54.444;18.444;2023-03-23T14:01:39;2.50;;;1.60;;
17145;SDS011;8688;54.444;18.444;2023-03-23T14:04:10;4.25;;;1.77;;
17145;SDS011;8688;54.444;18.444;2023-03-23T14:06:40;2.60;;;1.88;;
17145;SDS011;8688;54.444;18.444;2023-03-23T14:09:11;3.55;;;1.60;;
17145;SDS011;8688;54.444;18.444;2023-03-23T14:11:47;1.92;;;1.67;;
17145;SDS011;8688;54.444;18.444;2023-03-23T14:14:22;4.40;;;1.98;;
17145;SDS011;8688;54.444;18.444;2023-03-23T14:17:05;6.28;;;1.98;;
17145;SDS011;8688;54.444;18.444;2023-03-23T14:19:36;4.47;;;1.67;;
17145;SDS011;8688;54.444;18.444;2023-03-23T14:22:14;2.55;;;1.70;;
17145;SDS011;8688;54.444;18.444;2023-03-23T14:24:45;4.22;;;2.35;;
17145;SDS011;8688;54.444;18.444;2023-03-23T14:27:14;4.80;;;1.83;;
17145;SDS011;8688;54.444;18.444;2023-03-23T14:29:44;3.08;;;1.80;;
17145;SDS011;8688;54.444;18.444;2023-03-23T14:32:13;2.60;;;1.70;;
17145;SDS011;8688;54.444;18.444;2023-03-23T14:34:42;3.17;;;1.70;;
17145;SDS011;8688;54.444;18.444;2023-03-23T14:40:08;12.65;;;2.10;;
17145;SDS011;8688;54.444;18.444;2023-03-23T14:42:41;5.80;;;2.40;;
17145;SDS011;8688;54.444;18.444;2023-03-23T14:45:12;4.88;;;2.25;;
17145;SDS011;8688;54.444;18.444;2023-03-23T14:48:10;2.47;;;1.90;;
17145;SDS011;8688;54.444;18.444;2023-03-23T14:51:16;3.25;;;2.00;;
17145;SDS011;8688;54.444;18.444;2023-03-23T14:53:46;4.80;;;1.75;;
17145;SDS011;8688;54.444;18.444;2023-03-23T14:56:17;4.38;;;1.88;;
17145;SDS011;8688;54.444;18.444;2023-03-23T14:58:51;4.53;;;2.30;;
17145;SDS011;8688;54.444;18.444;2023-03-23T15:01:39;2.83;;;1.80;;
17145;SDS011;8688;54.444;18.444;2023-03-23T15:04:18;3.90;;;1.92;;
17145;SDS011;8688;54.444;18.444;2023-03-23T15:07:24;3.85;;;1.80;;
17145;SDS011;8688;54.444;18.444;2023-03-23T15:10:05;3.75;;;2.00;;
17145;SDS011;8688;54.444;18.444;2023-03-23T15:12:33;2.50;;;1.75;;
17145;SDS011;8688;54.444;18.444;2023-03-23T15:15:02;2.80;;;2.20;;
17145;SDS011;8688;54.444;18.444;2023-03-23T15:18:29;4.93;;;2.53;;
17145;SDS011;8688;54.444;18.444;2023-03-23T15:24:19;5.95;;;2.30;;